• Join FlightAware (Why Join?)
  • Login
  • US Flag 
02:26AM EDT


 

Airport Tracker/Info


-or-


 

Live Flight TrackerFlight Track Log ✈ JBU1251 ✈ 04-May-2013 ✈ KBOS - KIAD

Flight Track Log - Related Links

Times and Time Zones

All times are in EDT time to prevent confusion due to time zone crossing. See the JBU1251 flight status page for this flight to view local times or setup timezone preferences in your user account.

Time Position Orientation Groundspeed Altitude Reporting Facility
EDT Latitude Longitude Course Direction KTS MPH feet Rate Location/Type
06:46PM 42.3667 -70.9833 278° West 145 167 1,000  Level KA90
06:48PM 42.3667 -70.9000 90° East 186 214 3,500 2,400 Climbing KA90
06:49PM 42.3612 -70.7289 172° South  Level FlightAware Approximate
06:49PM 42.3908 -70.8097 70° East 242 278 6,900  Level Boston Center
06:50PM 42.2714 -70.7596 228° Southwest  Level FlightAware Approximate
06:50PM 42.3500 -70.7292 124° Southeast 242 278 10,400  Level Boston Center
06:51PM 42.2094 -70.8725 240° Southwest  Level FlightAware Approximate
06:51PM 42.2586 -70.7514 190° South 217 250 12,300  Level Boston Center
06:52PM 42.1871 -71.0039 278° West  Level FlightAware Approximate
06:52PM 42.2083 -70.8789 242° Southwest 247 284 15,600  Level Boston Center
06:53PM 42.2081 -71.0275 270° West 324 373 18,000 2,100 Climbing Boston Center
06:54PM 42.2078 -71.1619 270° West 365 420 19,900 2,100 Climbing Boston Center
06:55PM 42.2050 -71.3106 269° West 386 444 22,200 2,100 Climbing Boston Center
06:56PM 42.2003 -71.4647 268° West 407 468 24,200 1,740 Climbing Boston Center
06:57PM 42.1953 -71.6189 268° West 419 482 25,700 900 Climbing Boston Center
06:58PM 42.1900 -71.7900 268° West 434 499 26,000 120 Climbing Boston Center
06:59PM 42.1847 -71.9608 268° West 453 521 26,000  Level Boston Center
07:00PM 42.1811 -72.1347 268° West 464 534 26,000 480 Level Boston Center
07:01PM 42.1544 -72.3058 258° West 469 540 27,000 960 Climbing Boston Center
07:02PM 42.0856 -72.4681 240° Southwest 475 547 28,000 480 Climbing Boston Center
07:03PM 42.0147 -72.6442 242° Southwest 486 559 28,000  Level Boston Center
07:04PM 41.9456 -72.8058 240° Southwest 486 559 28,000  Level Boston Center
07:05PM 41.8781 -72.9642 240° Southwest 498 573 28,000  Level Boston Center
07:06PM 41.8064 -73.1308 240° Southwest 509 586 28,000  Level Boston Center
07:07PM 41.7386 -73.2886 240° Southwest 504 580 28,000  Level Boston Center
07:09PM 41.6200 -73.5628 240° Southwest 509 586 28,000  Level New York Center
07:10PM 41.5539 -73.7181 240° Southwest 498 573 28,000  Level New York Center
07:11PM 41.4811 -73.8697 237° Southwest 493 567 28,000  Level New York Center
07:12PM 41.4086 -74.0186 237° Southwest 493 567 28,000  Level New York Center
07:13PM 41.3336 -74.1669 236° Southwest 488 562 28,000  Level New York Center
07:14PM 41.2589 -74.2956 232° Southwest 494 568 28,000  Level New York Center
07:15PM 41.1794 -74.4403 234° Southwest 500 575 28,000  Level New York Center
07:16PM 41.0981 -74.5844 233° Southwest 494 568 28,000  Level New York Center
07:17PM 41.0183 -74.7283 234° Southwest 494 568 28,000  Level New York Center
07:18PM 40.9361 -74.8719 233° Southwest 494 568 28,000  Level New York Center
07:19PM 40.8561 -75.0153 234° Southwest 488 562 28,000  Level New York Center
07:20PM 40.7778 -75.1611 235° Southwest 488 562 28,000  Level New York Center
07:21PM 40.6975 -75.3011 233° Southwest 488 562 28,000 -1,020 Level New York Center
07:22PM 40.6150 -75.4406 232° Southwest 493 567 26,100 -1,980 Descending New York Center
07:23PM 40.5386 -75.5772 234° Southwest 483 556 24,100 -2,040 Descending New York Center
07:24PM 40.4625 -75.7083 233° Southwest 477 549 22,100 -2,040 Descending New York Center
07:25PM 40.3861 -75.8392 233° Southwest 465 535 20,100 -1,080 Descending New York Center
07:26PM 40.3008 -75.9800 232° Southwest 465 535 20,000 -60 Descending New York Center
07:27PM 40.2283 -76.1106 234° Southwest 459 528 20,000  Level New York Center
07:28PM 40.1625 -76.2222 232° Southwest 459 528 20,000 -540 Level New York Center
07:29PM 40.0919 -76.3525 235° Southwest 450 518 19,000 -1,080 Descending New York Center
07:30PM 40.0244 -76.4989 239° Southwest 434 499 17,900 -1,020 Descending New York Center
07:32PM 39.9000 -76.7667 239° Southwest 407 468 16,000 -1,140 Descending Potomac TRACON
07:34PM 39.7833 -77.0000 237° Southwest 391 450 13,400 -1,380 Descending Potomac TRACON
07:35PM 39.7333 -77.1167 241° Southwest 380 437 11,900 -1,500 Descending Potomac TRACON
07:36PM 39.6833 -77.2333 241° Southwest 370 426 10,400 -960 Descending Potomac TRACON
07:37PM 39.6000 -77.3167 218° Southwest 356 410 10,000 -720 Descending Potomac TRACON
07:39PM 39.4500 -77.4000 203° Southwest 287 330 8,300 -900 Descending Potomac TRACON
07:40PM 39.3667 -77.4500 205° Southwest 258 297 7,300 -1,080 Descending Potomac TRACON
07:41PM 39.3167 -77.4500 180° South 219 252 6,200 -1,200 Descending Potomac TRACON
07:42PM 39.2500 -77.4500 180° South 191 220 5,000 -1,140 Descending Potomac TRACON
07:43PM 39.2000 -77.4500 180° South 187 215 4,000 -600 Descending Potomac TRACON
07:44PM 39.1500 -77.4500 180° South 184 212 3,800 -600 Descending Potomac TRACON
07:45PM 39.1000 -77.4500 180° South 185 213 2,800 -960 Descending Potomac TRACON
07:46PM 39.0500 -77.4500 180° South 170 196 1,900 -900 Descending Potomac TRACON
07:47PM 39.0167 -77.4667 201° Southwest 136 157 1,000 -900 Descending Potomac TRACON